Terminal Aerodrome Forecast
Issued by NWS Sioux Falls, SD

Home | Current Version | Previous Version | Text Only | Print | Product List | Glossary On
Versions: 1 2 3 4 5 6 7 8 9 10 11 12 13 14
000
FTUS43 KFSD 191734
TAFFSD
TAF
KFSD 191734Z 1918/2018 20014G25KT P6SM SCT020 SCT120
     FM192200 26007KT P6SM SCT045 BKN100
     FM200300 31007KT P6SM SCT120
     FM201500 32012KT P6SM SKC=

USA.gov is the U.S. government's official web portal to all federal, state and local government web resources and services.